sensor_id;sensor_type;location;lat;lon;timestamp;pressure;altitude;pressure_sealevel;temperature;humidity
20860;BME280;10590;48.154;11.514;2023-06-14T00:02:09;95194.22;;;15.17;43.41
20860;BME280;10590;48.154;11.514;2023-06-14T00:07:37;95194.66;;;15.00;44.51
20860;BME280;10590;48.154;11.514;2023-06-14T00:13:03;95187.22;;;14.74;45.11
20860;BME280;10590;48.154;11.514;2023-06-14T00:18:25;95184.03;;;14.53;45.83
20860;BME280;10590;48.154;11.514;2023-06-14T00:23:51;95190.28;;;14.41;46.48
20860;BME280;10590;48.154;11.514;2023-06-14T00:29:13;95187.00;;;14.32;47.68
20860;BME280;10590;48.154;11.514;2023-06-14T00:34:35;95178.22;;;14.00;49.68
20860;BME280;10590;48.154;11.514;2023-06-14T00:39:58;95181.50;;;13.93;51.08
20860;BME280;10590;48.154;11.514;2023-06-14T00:45:21;95182.63;;;13.92;51.41
20860;BME280;10590;48.154;11.514;2023-06-14T00:50:43;95187.28;;;13.80;52.23
20860;BME280;10590;48.154;11.514;2023-06-14T00:56:07;95190.47;;;13.54;53.48
20860;BME280;10590;48.154;11.514;2023-06-14T01:01:30;95189.78;;;13.57;53.36
20860;BME280;10590;48.154;11.514;2023-06-14T01:06:59;95191.53;;;13.09;54.69
20860;BME280;10590;48.154;11.514;2023-06-14T01:12:37;95193.63;;;13.28;55.06
20860;BME280;10590;48.154;11.514;2023-06-14T01:18:01;95189.28;;;13.23;55.08
20860;BME280;10590;48.154;11.514;2023-06-14T01:23:25;95188.84;;;13.21;55.76
20860;BME280;10590;48.154;11.514;2023-06-14T01:28:54;95186.66;;;12.99;56.40
20860;BME280;10590;48.154;11.514;2023-06-14T01:34:19;95191.06;;;12.79;57.23
20860;BME280;10590;48.154;11.514;2023-06-14T01:39:43;95191.19;;;12.70;57.17
20860;BME280;10590;48.154;11.514;2023-06-14T01:45:09;95177.81;;;12.70;57.17
20860;BME280;10590;48.154;11.514;2023-06-14T01:50:31;95174.50;;;12.49;58.03
20860;BME280;10590;48.154;11.514;2023-06-14T01:55:54;95172.00;;;12.16;59.14
20860;BME280;10590;48.154;11.514;2023-06-14T02:01:16;95174.09;;;11.98;59.82
20860;BME280;10590;48.154;11.514;2023-06-14T02:06:39;95180.22;;;11.99;60.48
20860;BME280;10590;48.154;11.514;2023-06-14T02:12:03;95180.91;;;12.20;59.36
20860;BME280;10590;48.154;11.514;2023-06-14T02:17:25;95175.78;;;12.15;59.38
20860;BME280;10590;48.154;11.514;2023-06-14T02:22:47;95178.56;;;12.19;59.22
20860;BME280;10590;48.154;11.514;2023-06-14T02:28:10;95172.34;;;12.15;59.20
20860;BME280;10590;48.154;11.514;2023-06-14T02:33:33;95178.00;;;12.13;59.25
20860;BME280;10590;48.154;11.514;2023-06-14T02:38:55;95163.06;;;12.12;58.40
20860;BME280;10590;48.154;11.514;2023-06-14T02:44:19;95174.97;;;11.78;60.49
20860;BME280;10590;48.154;11.514;2023-06-14T02:49:41;95188.13;;;11.05;61.92
20860;BME280;10590;48.154;11.514;2023-06-14T02:55:03;95181.03;;;11.42;62.07
20860;BME280;10590;48.154;11.514;2023-06-14T03:00:28;95176.66;;;11.04;63.33
20860;BME280;10590;48.154;11.514;2023-06-14T03:05:51;95178.25;;;10.84;65.34
20860;BME280;10590;48.154;11.514;2023-06-14T03:11:14;95182.75;;;10.72;66.88
20860;BME280;10590;48.154;11.514;2023-06-14T03:16:39;95187.84;;;11.52;65.42
20860;BME280;10590;48.154;11.514;2023-06-14T03:22:01;95194.56;;;11.04;66.72
20860;BME280;10590;48.154;11.514;2023-06-14T03:27:23;95201.84;;;11.48;64.42
20860;BME280;10590;48.154;11.514;2023-06-14T03:32:47;95210.88;;;11.23;64.04
20860;BME280;10590;48.154;11.514;2023-06-14T03:38:09;95205.53;;;11.23;64.84
20860;BME280;10590;48.154;11.514;2023-06-14T03:43:31;95207.88;;;11.58;64.39
20860;BME280;10590;48.154;11.514;2023-06-14T03:48:55;95207.81;;;11.33;64.10
20860;BME280;10590;48.154;11.514;2023-06-14T03:54:17;95219.88;;;11.85;62.98
20860;BME280;10590;48.154;11.514;2023-06-14T03:59:39;95223.13;;;11.90;62.29
20860;BME280;10590;48.154;11.514;2023-06-14T04:05:03;95232.06;;;12.19;61.27
20860;BME280;10590;48.154;11.514;2023-06-14T04:10:26;95231.38;;;12.58;59.73
20860;BME280;10590;48.154;11.514;2023-06-14T04:15:48;95240.44;;;12.29;60.52
20860;BME280;10590;48.154;11.514;2023-06-14T04:21:11;95242.03;;;12.83;59.61
20860;BME280;10590;48.154;11.514;2023-06-14T04:26:33;95251.16;;;13.06;57.86
20860;BME280;10590;48.154;11.514;2023-06-14T04:31:55;95246.38;;;13.39;56.01
20860;BME280;10590;48.154;11.514;2023-06-14T04:37:22;95250.41;;;13.77;55.52
20860;BME280;10590;48.154;11.514;2023-06-14T04:42:44;95259.81;;;14.15;53.66
20860;BME280;10590;48.154;11.514;2023-06-14T04:48:06;95253.84;;;14.37;52.01
20860;BME280;10590;48.154;11.514;2023-06-14T04:53:30;95252.38;;;14.24;51.49
20860;BME280;10590;48.154;11.514;2023-06-14T04:58:52;95255.22;;;14.62;49.94
20860;BME280;10590;48.154;11.514;2023-06-14T05:04:15;95262.94;;;14.64;48.78
20860;BME280;10590;48.154;11.514;2023-06-14T05:09:38;95266.38;;;15.15;47.99
20860;BME280;10590;48.154;11.514;2023-06-14T05:15:00;95268.25;;;14.95;48.19
20860;BME280;10590;48.154;11.514;2023-06-14T05:20:22;95275.28;;;15.19;48.66
20860;BME280;10590;48.154;11.514;2023-06-14T05:25:46;95282.13;;;15.71;46.61
20860;BME280;10590;48.154;11.514;2023-06-14T05:31:08;95277.91;;;15.93;46.85
20860;BME280;10590;48.154;11.514;2023-06-14T05:36:30;95276.97;;;15.27;47.84
20860;BME280;10590;48.154;11.514;2023-06-14T05:41:53;95285.53;;;16.10;45.40
20860;BME280;10590;48.154;11.514;2023-06-14T05:47:15;95292.50;;;15.92;45.78
20860;BME280;10590;48.154;11.514;2023-06-14T05:52:37;95289.94;;;16.45;45.26
20860;BME280;10590;48.154;11.514;2023-06-14T05:58:01;95285.47;;;16.75;44.59
20860;BME280;10590;48.154;11.514;2023-06-14T06:03:23;95291.16;;;16.97;43.56
20860;BME280;10590;48.154;11.514;2023-06-14T06:08:45;95296.03;;;16.42;44.57
20860;BME280;10590;48.154;11.514;2023-06-14T06:14:08;95300.41;;;17.26;43.34
20860;BME280;10590;48.154;11.514;2023-06-14T06:19:30;95304.88;;;17.41;42.37
20860;BME280;10590;48.154;11.514;2023-06-14T06:24:52;95300.50;;;17.33;41.89
20860;BME280;10590;48.154;11.514;2023-06-14T06:30:15;95304.63;;;17.83;41.71
20860;BME280;10590;48.154;11.514;2023-06-14T06:35:43;95311.25;;;18.23;40.53
20860;BME280;10590;48.154;11.514;2023-06-14T06:41:06;95316.34;;;17.98;40.95
20860;BME280;10590;48.154;11.514;2023-06-14T06:46:29;95322.59;;;18.83;39.56
20860;BME280;10590;48.154;11.514;2023-06-14T06:52:00;95318.53;;;19.80;38.26
20860;BME280;10590;48.154;11.514;2023-06-14T06:57:23;95316.25;;;19.89;37.03
20860;BME280;10590;48.154;11.514;2023-06-14T07:02:46;95329.22;;;18.93;38.89
20860;BME280;10590;48.154;11.514;2023-06-14T07:08:08;95329.34;;;19.72;38.49
20860;BME280;10590;48.154;11.514;2023-06-14T07:13:30;95329.38;;;17.89;41.33
20860;BME280;10590;48.154;11.514;2023-06-14T07:18:53;95328.78;;;18.43;41.17
20860;BME280;10590;48.154;11.514;2023-06-14T07:24:15;95329.56;;;19.42;38.53
20860;BME280;10590;48.154;11.514;2023-06-14T07:29:37;95335.66;;;20.01;37.11
20860;BME280;10590;48.154;11.514;2023-06-14T07:35:01;95342.72;;;22.57;32.74
20860;BME280;10590;48.154;11.514;2023-06-14T07:40:23;95346.91;;;24.26;29.66
20860;BME280;10590;48.154;11.514;2023-06-14T07:45:45;95352.44;;;23.10;31.00
20860;BME280;10590;48.154;11.514;2023-06-14T07:51:09;95342.44;;;22.34;32.47
20860;BME280;10590;48.154;11.514;2023-06-14T07:56:31;95346.28;;;20.88;34.33
20860;BME280;10590;48.154;11.514;2023-06-14T08:01:53;95338.75;;;23.17;31.22
20860;BME280;10590;48.154;11.514;2023-06-14T08:07:16;95347.69;;;23.62;29.59
20860;BME280;10590;48.154;11.514;2023-06-14T08:12:38;95343.25;;;22.93;30.11
20860;BME280;10590;48.154;11.514;2023-06-14T08:18:00;95338.88;;;24.15;26.99
20860;BME280;10590;48.154;11.514;2023-06-14T08:23:23;95342.06;;;25.22;26.42
20860;BME280;10590;48.154;11.514;2023-06-14T08:28:46;95362.13;;;24.27;25.69
20860;BME280;10590;48.154;11.514;2023-06-14T08:34:08;95365.09;;;27.15;22.42
20860;BME280;10590;48.154;11.514;2023-06-14T08:39:33;95364.66;;;30.51;19.60
20860;BME280;10590;48.154;11.514;2023-06-14T08:44:55;95369.59;;;27.54;22.27
20860;BME280;10590;48.154;11.514;2023-06-14T08:50:20;95364.53;;;26.36;22.56
20860;BME280;10590;48.154;11.514;2023-06-14T08:55:43;95368.66;;;26.96;22.33
20860;BME280;10590;48.154;11.514;2023-06-14T09:01:06;95367.25;;;26.72;22.51
20860;BME280;10590;48.154;11.514;2023-06-14T09:06:28;95356.38;;;28.65;20.74
20860;BME280;10590;48.154;11.514;2023-06-14T09:11:52;95368.88;;;26.85;22.68
20860;BME280;10590;48.154;11.514;2023-06-14T09:17:15;95367.78;;;29.14;20.69
20860;BME280;10590;48.154;11.514;2023-06-14T09:22:37;95371.59;;;28.12;21.97
20860;BME280;10590;48.154;11.514;2023-06-14T09:28:01;95372.06;;;28.65;21.05
20860;BME280;10590;48.154;11.514;2023-06-14T09:33:22;95379.31;;;27.10;22.93
20860;BME280;10590;48.154;11.514;2023-06-14T09:38:51;95382.34;;;27.77;22.70
20860;BME280;10590;48.154;11.514;2023-06-14T09:44:15;95380.44;;;29.12;20.20
20860;BME280;10590;48.154;11.514;2023-06-14T09:49:39;95389.81;;;26.59;23.53
20860;BME280;10590;48.154;11.514;2023-06-14T09:55:07;95376.16;;;26.00;23.70
20860;BME280;10590;48.154;11.514;2023-06-14T10:00:36;95384.72;;;26.42;23.05
20860;BME280;10590;48.154;11.514;2023-06-14T10:06:02;95378.44;;;26.97;22.16
20860;BME280;10590;48.154;11.514;2023-06-14T10:11:25;95371.09;;;29.69;19.89
20860;BME280;10590;48.154;11.514;2023-06-14T10:16:55;95367.69;;;29.05;21.76
20860;BME280;10590;48.154;11.514;2023-06-14T10:22:26;95367.25;;;29.67;20.28
20860;BME280;10590;48.154;11.514;2023-06-14T10:27:50;95373.78;;;29.35;21.13
20860;BME280;10590;48.154;11.514;2023-06-14T10:33:14;95367.13;;;29.10;21.12
20860;BME280;10590;48.154;11.514;2023-06-14T10:38:37;95374.56;;;24.59;26.56
20860;BME280;10590;48.154;11.514;2023-06-14T10:44:31;95374.41;;;27.96;22.63
20860;BME280;10590;48.154;11.514;2023-06-14T10:49:55;95368.88;;;27.83;23.51
20860;BME280;10590;48.154;11.514;2023-06-14T10:55:18;95358.31;;;28.52;21.30
20860;BME280;10590;48.154;11.514;2023-06-14T11:00:44;95369.97;;;28.81;22.13
20860;BME280;10590;48.154;11.514;2023-06-14T11:06:14;95362.81;;;28.46;20.93
20860;BME280;10590;48.154;11.514;2023-06-14T11:11:37;95356.94;;;28.85;21.59
20860;BME280;10590;48.154;11.514;2023-06-14T11:17:00;95357.81;;;29.42;20.05
20860;BME280;10590;48.154;11.514;2023-06-14T11:22:23;95371.41;;;26.24;23.99
20860;BME280;10590;48.154;11.514;2023-06-14T11:27:46;95370.19;;;27.62;21.79
20860;BME280;10590;48.154;11.514;2023-06-14T11:33:11;95366.19;;;28.25;20.44
20860;BME280;10590;48.154;11.514;2023-06-14T11:38:41;95362.66;;;28.91;18.99
20860;BME280;10590;48.154;11.514;2023-06-14T11:44:03;95365.16;;;29.11;17.99
20860;BME280;10590;48.154;11.514;2023-06-14T11:49:26;95347.19;;;29.79;17.82
20860;BME280;10590;48.154;11.514;2023-06-14T11:54:50;95338.28;;;29.75;18.71
20860;BME280;10590;48.154;11.514;2023-06-14T12:00:13;95344.81;;;28.58;19.44
20860;BME280;10590;48.154;11.514;2023-06-14T12:05:36;95346.59;;;29.62;18.73
20860;BME280;10590;48.154;11.514;2023-06-14T12:10:59;95348.66;;;25.67;21.96
20860;BME280;10590;48.154;11.514;2023-06-14T12:16:22;95345.44;;;30.07;17.77
20860;BME280;10590;48.154;11.514;2023-06-14T12:21:46;95345.91;;;28.47;18.85
20860;BME280;10590;48.154;11.514;2023-06-14T12:27:11;95348.13;;;28.78;20.12
20860;BME280;10590;48.154;11.514;2023-06-14T12:32:36;95335.16;;;29.64;19.04
20860;BME280;10590;48.154;11.514;2023-06-14T12:37:58;95340.22;;;25.58;22.87
20860;BME280;10590;48.154;11.514;2023-06-14T12:43:21;95339.38;;;24.91;24.32
20860;BME280;10590;48.154;11.514;2023-06-14T12:48:43;95339.59;;;27.18;22.05
20860;BME280;10590;48.154;11.514;2023-06-14T12:54:08;95339.22;;;28.74;19.84
20860;BME280;10590;48.154;11.514;2023-06-14T12:59:31;95338.00;;;30.38;17.99
20860;BME280;10590;48.154;11.514;2023-06-14T13:04:54;95344.16;;;28.79;19.42
20860;BME280;10590;48.154;11.514;2023-06-14T13:10:17;95352.38;;;28.41;19.74
20860;BME280;10590;48.154;11.514;2023-06-14T13:15:41;95352.13;;;25.48;22.82
20860;BME280;10590;48.154;11.514;2023-06-14T13:21:04;95343.50;;;29.13;19.22
20860;BME280;10590;48.154;11.514;2023-06-14T13:26:26;95351.13;;;27.26;21.25
20860;BME280;10590;48.154;11.514;2023-06-14T13:31:49;95352.81;;;29.75;18.87
20860;BME280;10590;48.154;11.514;2023-06-14T13:37:11;95339.88;;;28.65;20.45
20860;BME280;10590;48.154;11.514;2023-06-14T13:42:33;95342.16;;;27.25;20.76
20860;BME280;10590;48.154;11.514;2023-06-14T13:47:57;95339.84;;;25.36;22.86
20860;BME280;10590;48.154;11.514;2023-06-14T13:53:19;95325.88;;;27.80;20.57
20860;BME280;10590;48.154;11.514;2023-06-14T13:58:41;95328.72;;;28.18;20.69
20860;BME280;10590;48.154;11.514;2023-06-14T14:04:05;95333.75;;;28.19;20.37
20860;BME280;10590;48.154;11.514;2023-06-14T14:09:27;95328.53;;;27.83;19.46
20860;BME280;10590;48.154;11.514;2023-06-14T14:14:49;95329.94;;;25.66;22.17
20860;BME280;10590;48.154;11.514;2023-06-14T14:20:13;95315.47;;;28.42;19.86
20860;BME280;10590;48.154;11.514;2023-06-14T14:25:36;95323.00;;;29.27;19.19
20860;BME280;10590;48.154;11.514;2023-06-14T14:30:58;95325.38;;;29.03;19.49
20860;BME280;10590;48.154;11.514;2023-06-14T14:36:21;95327.59;;;27.74;21.07
20860;BME280;10590;48.154;11.514;2023-06-14T14:41:44;95333.03;;;25.88;23.66
20860;BME280;10590;48.154;11.514;2023-06-14T14:47:06;95336.53;;;28.32;22.15
20860;BME280;10590;48.154;11.514;2023-06-14T14:52:29;95338.53;;;25.21;24.30
20860;BME280;10590;48.154;11.514;2023-06-14T14:57:51;95337.28;;;24.18;25.92
20860;BME280;10590;48.154;11.514;2023-06-14T15:03:13;95336.03;;;25.93;24.59
20860;BME280;10590;48.154;11.514;2023-06-14T15:08:36;95344.34;;;27.47;22.65
20860;BME280;10590;48.154;11.514;2023-06-14T15:13:58;95336.66;;;26.93;22.98
20860;BME280;10590;48.154;11.514;2023-06-14T15:19:21;95343.91;;;26.83;23.28
20860;BME280;10590;48.154;11.514;2023-06-14T15:24:44;95350.28;;;23.73;26.48
20860;BME280;10590;48.154;11.514;2023-06-14T15:30:07;95342.19;;;24.00;26.39
20860;BME280;10590;48.154;11.514;2023-06-14T15:35:29;95339.44;;;23.28;27.42
20860;BME280;10590;48.154;11.514;2023-06-14T15:40:52;95348.97;;;25.50;24.54
20860;BME280;10590;48.154;11.514;2023-06-14T15:46:15;95344.88;;;24.03;25.55
20860;BME280;10590;48.154;11.514;2023-06-14T15:51:36;95344.94;;;23.21;26.49
20860;BME280;10590;48.154;11.514;2023-06-14T15:57:00;95344.84;;;22.87;27.33
20860;BME280;10590;48.154;11.514;2023-06-14T16:02:22;95340.69;;;23.16;27.41
20860;BME280;10590;48.154;11.514;2023-06-14T16:07:44;95343.47;;;23.58;27.38
20860;BME280;10590;48.154;11.514;2023-06-14T16:13:07;95351.75;;;23.43;27.91
20860;BME280;10590;48.154;11.514;2023-06-14T16:18:29;95356.50;;;23.32;28.74
20860;BME280;10590;48.154;11.514;2023-06-14T16:23:51;95355.69;;;22.91;29.24
20860;BME280;10590;48.154;11.514;2023-06-14T16:29:14;95360.38;;;22.90;29.03
20860;BME280;10590;48.154;11.514;2023-06-14T16:34:36;95360.94;;;22.60;29.05
20860;BME280;10590;48.154;11.514;2023-06-14T16:39:58;95361.94;;;22.87;28.98
20860;BME280;10590;48.154;11.514;2023-06-14T16:45:21;95370.06;;;22.95;28.76
20860;BME280;10590;48.154;11.514;2023-06-14T16:50:44;95375.66;;;22.70;29.71
20860;BME280;10590;48.154;11.514;2023-06-14T16:56:06;95375.84;;;22.31;29.45
20860;BME280;10590;48.154;11.514;2023-06-14T17:01:30;95377.41;;;22.32;30.46
20860;BME280;10590;48.154;11.514;2023-06-14T17:06:54;95396.94;;;22.02;30.68
20860;BME280;10590;48.154;11.514;2023-06-14T17:12:16;95401.63;;;21.87;32.01
20860;BME280;10590;48.154;11.514;2023-06-14T17:17:39;95403.13;;;22.02;31.47
20860;BME280;10590;48.154;11.514;2023-06-14T17:23:01;95409.03;;;21.83;31.76
20860;BME280;10590;48.154;11.514;2023-06-14T17:28:24;95413.28;;;21.84;32.77
20860;BME280;10590;48.154;11.514;2023-06-14T17:33:47;95421.81;;;21.82;32.07
20860;BME280;10590;48.154;11.514;2023-06-14T17:39:10;95418.34;;;21.75;31.88
20860;BME280;10590;48.154;11.514;2023-06-14T17:44:31;95426.50;;;21.78;32.65
20860;BME280;10590;48.154;11.514;2023-06-14T17:49:55;95429.22;;;21.57;33.44
20860;BME280;10590;48.154;11.514;2023-06-14T17:55:17;95433.47;;;21.65;33.74
20860;BME280;10590;48.154;11.514;2023-06-14T18:00:41;95438.56;;;21.27;33.65
20860;BME280;10590;48.154;11.514;2023-06-14T18:06:04;95439.72;;;21.26;33.13
20860;BME280;10590;48.154;11.514;2023-06-14T18:11:26;95435.81;;;20.99;33.54
20860;BME280;10590;48.154;11.514;2023-06-14T18:16:51;95448.97;;;20.93;34.36
20860;BME280;10590;48.154;11.514;2023-06-14T18:22:14;95455.16;;;20.83;34.19
20860;BME280;10590;48.154;11.514;2023-06-14T18:27:36;95459.81;;;20.83;34.49
20860;BME280;10590;48.154;11.514;2023-06-14T18:32:58;95463.63;;;20.64;34.64
20860;BME280;10590;48.154;11.514;2023-06-14T18:38:21;95462.44;;;20.61;35.13
20860;BME280;10590;48.154;11.514;2023-06-14T18:43:43;95467.47;;;20.56;35.12
20860;BME280;10590;48.154;11.514;2023-06-14T18:49:05;95474.41;;;20.50;35.09
20860;BME280;10590;48.154;11.514;2023-06-14T18:54:28;95489.00;;;20.24;35.66
20860;BME280;10590;48.154;11.514;2023-06-14T18:59:50;95483.25;;;20.36;36.40
20860;BME280;10590;48.154;11.514;2023-06-14T19:05:12;95486.66;;;20.22;35.53
20860;BME280;10590;48.154;11.514;2023-06-14T19:10:38;95497.47;;;20.12;35.90
20860;BME280;10590;48.154;11.514;2023-06-14T19:16:00;95502.84;;;20.08;36.19
20860;BME280;10590;48.154;11.514;2023-06-14T19:21:22;95502.75;;;19.94;36.30
20860;BME280;10590;48.154;11.514;2023-06-14T19:26:45;95506.97;;;19.88;36.47
20860;BME280;10590;48.154;11.514;2023-06-14T19:32:07;95514.28;;;19.80;36.66
20860;BME280;10590;48.154;11.514;2023-06-14T19:37:29;95521.63;;;19.83;36.77
20860;BME280;10590;48.154;11.514;2023-06-14T19:42:53;95520.34;;;19.63;37.21
20860;BME280;10590;48.154;11.514;2023-06-14T19:48:18;95537.94;;;19.42;37.73
20860;BME280;10590;48.154;11.514;2023-06-14T19:53:40;95550.63;;;18.98;38.96
20860;BME280;10590;48.154;11.514;2023-06-14T19:59:03;95546.97;;;19.17;38.74
20860;BME280;10590;48.154;11.514;2023-06-14T20:04:25;95548.53;;;19.18;39.01
20860;BME280;10590;48.154;11.514;2023-06-14T20:09:47;95551.75;;;18.97;39.55
20860;BME280;10590;48.154;11.514;2023-06-14T20:15:10;95545.16;;;18.61;40.28
20860;BME280;10590;48.154;11.514;2023-06-14T20:20:35;95548.22;;;18.59;40.74
20860;BME280;10590;48.154;11.514;2023-06-14T20:25:57;95560.41;;;18.76;40.70
20860;BME280;10590;48.154;11.514;2023-06-14T20:31:23;95555.00;;;18.76;40.70
20860;BME280;10590;48.154;11.514;2023-06-14T20:36:45;95553.00;;;18.69;40.84
20860;BME280;10590;48.154;11.514;2023-06-14T20:42:07;95548.66;;;18.61;41.33
20860;BME280;10590;48.154;11.514;2023-06-14T20:47:32;95558.66;;;18.61;41.63
20860;BME280;10590;48.154;11.514;2023-06-14T20:52:54;95559.34;;;18.54;42.02
20860;BME280;10590;48.154;11.514;2023-06-14T20:58:16;95552.19;;;18.35;42.45
20860;BME280;10590;48.154;11.514;2023-06-14T21:03:40;95561.09;;;18.13;43.47
20860;BME280;10590;48.154;11.514;2023-06-14T21:09:02;95554.97;;;18.16;43.53
20860;BME280;10590;48.154;11.514;2023-06-14T21:14:27;95555.75;;;18.17;43.28
20860;BME280;10590;48.154;11.514;2023-06-14T21:19:50;95555.34;;;18.14;43.46
20860;BME280;10590;48.154;11.514;2023-06-14T21:25:12;95562.72;;;18.18;43.51
20860;BME280;10590;48.154;11.514;2023-06-14T21:30:36;95569.03;;;18.25;43.39
20860;BME280;10590;48.154;11.514;2023-06-14T21:36:00;95558.72;;;18.08;44.29
20860;BME280;10590;48.154;11.514;2023-06-14T21:41:22;95562.00;;;18.21;43.57
20860;BME280;10590;48.154;11.514;2023-06-14T21:46:44;95566.47;;;18.09;44.18
20860;BME280;10590;48.154;11.514;2023-06-14T21:52:08;95569.75;;;18.22;43.78
20860;BME280;10590;48.154;11.514;2023-06-14T21:57:31;95565.94;;;18.27;44.09
20860;BME280;10590;48.154;11.514;2023-06-14T22:02:55;95561.84;;;17.83;44.77
20860;BME280;10590;48.154;11.514;2023-06-14T22:08:19;95564.22;;;17.89;44.73
20860;BME280;10590;48.154;11.514;2023-06-14T22:13:41;95558.97;;;17.73;45.46
20860;BME280;10590;48.154;11.514;2023-06-14T22:19:05;95566.88;;;17.39;46.26
20860;BME280;10590;48.154;11.514;2023-06-14T22:24:29;95567.78;;;17.47;46.05
20860;BME280;10590;48.154;11.514;2023-06-14T22:29:51;95568.94;;;17.27;46.75
20860;BME280;10590;48.154;11.514;2023-06-14T22:35:17;95568.09;;;17.23;47.13
20860;BME280;10590;48.154;11.514;2023-06-14T22:40:40;95568.41;;;17.17;46.70
20860;BME280;10590;48.154;11.514;2023-06-14T22:46:02;95562.28;;;16.98;47.66
20860;BME280;10590;48.154;11.514;2023-06-14T22:51:25;95561.81;;;16.73;48.09
20860;BME280;10590;48.154;11.514;2023-06-14T22:56:48;95550.72;;;16.97;48.16
20860;BME280;10590;48.154;11.514;2023-06-14T23:02:10;95553.38;;;16.74;48.07
20860;BME280;10590;48.154;11.514;2023-06-14T23:07:33;95552.50;;;16.90;48.20
20860;BME280;10590;48.154;11.514;2023-06-14T23:12:58;95550.53;;;16.32;49.42
20860;BME280;10590;48.154;11.514;2023-06-14T23:18:23;95550.50;;;16.48;49.34
20860;BME280;10590;48.154;11.514;2023-06-14T23:23:45;95553.00;;;16.56;49.00
20860;BME280;10590;48.154;11.514;2023-06-14T23:29:09;95550.41;;;16.44;49.66
20860;BME280;10590;48.154;11.514;2023-06-14T23:34:31;95552.72;;;16.27;50.37
20860;BME280;10590;48.154;11.514;2023-06-14T23:39:54;95545.44;;;15.92;51.08
20860;BME280;10590;48.154;11.514;2023-06-14T23:45:17;95543.53;;;15.92;51.77
20860;BME280;10590;48.154;11.514;2023-06-14T23:50:39;95547.59;;;16.02;51.52
20860;BME280;10590;48.154;11.514;2023-06-14T23:56:02;95546.38;;;16.00;51.66
